createdAt,value
2018-02-19T00:00:13.000Z,101049
2018-02-19T00:02:13.000Z,101051
2018-02-19T00:03:13.000Z,101048
2018-02-19T00:04:13.000Z,101048
2018-02-19T00:06:13.000Z,101045
2018-02-19T00:07:13.000Z,101047
2018-02-19T00:08:13.000Z,101041
2018-02-19T00:10:13.000Z,101039
2018-02-19T00:11:13.000Z,101030
2018-02-19T00:13:13.000Z,101028
2018-02-19T00:14:58.000Z,101031
2018-02-19T00:16:13.000Z,101029
2018-02-19T00:18:13.000Z,101029
2018-02-19T00:20:13.000Z,101020
2018-02-19T00:21:13.000Z,101022
2018-02-19T00:22:13.000Z,101024
2018-02-19T00:23:58.000Z,101029
2018-02-19T00:25:13.000Z,101030
2018-02-19T00:26:13.000Z,101025
2018-02-19T00:28:13.000Z,101019
2018-02-19T00:30:13.000Z,101024
2018-02-19T00:32:13.000Z,101013
2018-02-19T00:33:13.000Z,101019
2018-02-19T00:35:13.000Z,101015
2018-02-19T00:36:13.000Z,101016
2018-02-19T00:38:13.000Z,101009
2018-02-19T00:39:58.000Z,101004
2018-02-19T00:41:13.000Z,101008
2018-02-19T00:43:13.000Z,101001
2018-02-19T00:45:13.000Z,101002
2018-02-19T00:47:13.000Z,101000
2018-02-19T00:49:13.000Z,100998
2018-02-19T00:51:13.000Z,100993
2018-02-19T00:53:13.000Z,100988
2018-02-19T00:54:13.000Z,100990
2018-02-19T00:56:13.000Z,100988
2018-02-19T00:57:58.000Z,100986
2018-02-19T00:59:13.000Z,100979
2018-02-19T01:01:13.000Z,100975
2018-02-19T01:02:58.000Z,100978
2018-02-19T01:04:13.000Z,100976
2018-02-19T01:05:13.000Z,100976
2018-02-19T01:07:13.000Z,100977
2018-02-19T01:09:13.000Z,100976
2018-02-19T01:11:13.000Z,100975
2018-02-19T01:12:13.000Z,100970
2018-02-19T01:14:13.000Z,100970
2018-02-19T01:16:13.000Z,100966
2018-02-19T01:18:13.000Z,100968
2018-02-19T01:19:13.000Z,100971
2018-02-19T01:21:13.000Z,100964
2018-02-19T01:23:13.000Z,100965
2018-02-19T01:25:13.000Z,100961
2018-02-19T01:27:13.000Z,100959
2018-02-19T01:29:13.000Z,100955
2018-02-19T01:30:58.000Z,100955
2018-02-19T01:32:13.000Z,100955
2018-02-19T01:34:13.000Z,100952
2018-02-19T01:36:13.000Z,100946
2018-02-19T01:38:13.000Z,100953
2018-02-19T01:39:13.000Z,100949
2018-02-19T01:40:13.000Z,100948
2018-02-19T01:41:58.000Z,100941
2018-02-19T01:43:13.000Z,100938
2018-02-19T01:44:13.000Z,100941
2018-02-19T01:45:58.000Z,100932
2018-02-19T01:47:13.000Z,100935
2018-02-19T01:48:58.000Z,100928
2018-02-19T01:50:13.000Z,100935
2018-02-19T01:51:13.000Z,100930
2018-02-19T01:52:13.000Z,100932
2018-02-19T01:53:58.000Z,100931
2018-02-19T01:55:13.000Z,100929
2018-02-19T01:57:13.000Z,100930
2018-02-19T01:58:58.000Z,100932
2018-02-19T02:00:13.000Z,100928
2018-02-19T02:02:13.000Z,100925
2018-02-19T02:03:13.000Z,100923
2018-02-19T02:04:13.000Z,100920
2018-02-19T02:06:13.000Z,100928
2018-02-19T02:08:13.000Z,100920
2018-02-19T02:10:13.000Z,100916
2018-02-19T02:12:13.000Z,100907
2018-02-19T02:14:13.000Z,100905
2018-02-19T02:15:13.000Z,100906
2018-02-19T02:17:13.000Z,100910
2018-02-19T02:19:13.000Z,100906
2018-02-19T02:20:13.000Z,100901
2018-02-19T02:22:13.000Z,100908
2018-02-19T02:24:13.000Z,100900
2018-02-19T02:26:13.000Z,100897
2018-02-19T02:27:13.000Z,100899
2018-02-19T02:29:13.000Z,100894
2018-02-19T02:31:13.000Z,100894
2018-02-19T02:32:13.000Z,100894
2018-02-19T02:33:13.000Z,100895
2018-02-19T02:34:13.000Z,100888
2018-02-19T02:36:13.000Z,100889
2018-02-19T02:37:43.000Z,100887
2018-02-19T02:39:13.000Z,100890
2018-02-19T02:41:13.000Z,100896
2018-02-19T02:43:13.000Z,100890
2018-02-19T02:44:13.000Z,100891
2018-02-19T02:45:58.000Z,100893
2018-02-19T02:47:13.000Z,100893
2018-02-19T02:48:13.000Z,100889
2018-02-19T02:50:13.000Z,100881
2018-02-19T02:52:13.000Z,100881
2018-02-19T02:54:13.000Z,100883
2018-02-19T02:56:13.000Z,100880
2018-02-19T02:58:13.000Z,100889
2018-02-19T02:59:13.000Z,100885
2018-02-19T03:00:58.000Z,100882
2018-02-19T03:02:13.000Z,100885
2018-02-19T03:04:13.000Z,100889
2018-02-19T03:06:13.000Z,100888
2018-02-19T03:08:13.000Z,100884
2018-02-19T03:09:13.000Z,100881
2018-02-19T03:10:13.000Z,100885
2018-02-19T03:12:13.000Z,100887
2018-02-19T03:13:58.000Z,100882
2018-02-19T03:15:13.000Z,100889
2018-02-19T03:16:58.000Z,100880
2018-02-19T03:18:13.000Z,100883
2018-02-19T03:20:13.000Z,100888
2018-02-19T03:22:13.000Z,100896
2018-02-19T03:23:13.000Z,100895
2018-02-19T03:24:58.000Z,100901
2018-02-19T03:26:13.000Z,100898
2018-02-19T03:28:13.000Z,100894
2018-02-19T03:30:13.000Z,100891
2018-02-19T03:31:58.000Z,100898
2018-02-19T03:33:13.000Z,100895
2018-02-19T03:34:13.000Z,100896
2018-02-19T03:36:13.000Z,100899
2018-02-19T03:38:13.000Z,100899
2018-02-19T03:40:13.000Z,100895
2018-02-19T03:41:13.000Z,100897
2018-02-19T03:43:13.000Z,100892
2018-02-19T03:45:13.000Z,100893
2018-02-19T03:46:13.000Z,100888
2018-02-19T03:47:13.000Z,100892
2018-02-19T03:49:13.000Z,100888
2018-02-19T03:50:13.000Z,100883
2018-02-19T03:52:13.000Z,100873
2018-02-19T03:54:13.000Z,100878
2018-02-19T03:55:13.000Z,100881
2018-02-19T03:56:13.000Z,100882
2018-02-19T03:58:13.000Z,100873
2018-02-19T04:00:13.000Z,100870
2018-02-19T04:01:58.000Z,100871
2018-02-19T04:03:13.000Z,100871
2018-02-19T04:05:13.000Z,100866
2018-02-19T04:06:13.000Z,100868
2018-02-19T04:07:13.000Z,100866
2018-02-19T04:08:13.000Z,100863
2018-02-19T04:10:13.000Z,100861
2018-02-19T04:11:58.000Z,100864
2018-02-19T04:13:13.000Z,100855
2018-02-19T04:15:13.000Z,100856
2018-02-19T04:16:13.000Z,100849
2018-02-19T04:17:13.000Z,100848
2018-02-19T04:19:13.000Z,100844
2018-02-19T04:21:13.000Z,100842
2018-02-19T04:22:13.000Z,100846
2018-02-19T04:24:13.000Z,100839
2018-02-19T04:25:13.000Z,100845
2018-02-19T04:26:58.000Z,100833
2018-02-19T04:29:13.000Z,100829
2018-02-19T04:31:13.000Z,100828
2018-02-19T04:32:13.000Z,100828
2018-02-19T04:34:13.000Z,100824
2018-02-19T04:36:13.000Z,100819
2018-02-19T04:38:13.000Z,100822
2018-02-19T04:40:13.000Z,100820
2018-02-19T04:42:13.000Z,100814
2018-02-19T04:43:13.000Z,100814
2018-02-19T04:44:13.000Z,100814
2018-02-19T04:46:13.000Z,100811
2018-02-19T04:47:13.000Z,100812
2018-02-19T04:48:13.000Z,100809
2018-02-19T04:50:13.000Z,100803
2018-02-19T04:51:13.000Z,100800
2018-02-19T04:52:13.000Z,100803
2018-02-19T04:54:13.000Z,100803
2018-02-19T04:55:13.000Z,100804
2018-02-19T04:57:13.000Z,100803
2018-02-19T04:58:13.000Z,100796
2018-02-19T05:00:13.000Z,100797
2018-02-19T05:01:58.000Z,100798
2018-02-19T05:03:13.000Z,100802
2018-02-19T05:04:13.000Z,100795
2018-02-19T05:06:13.000Z,100800
2018-02-19T05:07:13.000Z,100795
2018-02-19T05:08:58.000Z,100794
2018-02-19T05:10:13.000Z,100791
2018-02-19T05:11:13.000Z,100794
2018-02-19T05:13:13.000Z,100790
2018-02-19T05:14:13.000Z,100790
2018-02-19T05:16:13.000Z,100793
2018-02-19T05:18:13.000Z,100787
2018-02-19T05:20:13.000Z,100785
2018-02-19T05:22:13.000Z,100783
2018-02-19T05:24:13.000Z,100788
2018-02-19T05:25:13.000Z,100790
2018-02-19T05:27:13.000Z,100789
2018-02-19T05:28:13.000Z,100803
2018-02-19T05:29:13.000Z,100786
2018-02-19T05:31:13.000Z,100779
2018-02-19T05:32:13.000Z,100774
2018-02-19T05:34:13.000Z,100780
2018-02-19T05:35:13.000Z,100774
2018-02-19T05:37:13.000Z,100781
2018-02-19T05:38:13.000Z,100780
2018-02-19T05:39:13.000Z,100782
2018-02-19T05:41:13.000Z,100779
2018-02-19T05:42:43.000Z,100773
2018-02-19T05:44:13.000Z,100772
2018-02-19T05:45:13.000Z,100776
2018-02-19T05:47:13.000Z,100777
2018-02-19T05:49:13.000Z,100779
2018-02-19T05:50:13.000Z,100784
2018-02-19T05:51:13.000Z,100784
2018-02-19T05:52:13.000Z,100798
2018-02-19T05:53:58.000Z,100793
2018-02-19T05:55:13.000Z,100793
2018-02-19T05:56:13.000Z,100794
2018-02-19T05:58:13.000Z,100790
2018-02-19T06:00:13.000Z,100789
2018-02-19T06:02:13.000Z,100790
2018-02-19T06:03:13.000Z,100787
2018-02-19T06:05:13.000Z,100790
2018-02-19T06:07:13.000Z,100790
2018-02-19T06:09:13.000Z,100797
2018-02-19T06:10:13.000Z,100792
2018-02-19T06:11:13.000Z,100796
2018-02-19T06:13:13.000Z,100794
2018-02-19T06:14:13.000Z,100789
2018-02-19T06:15:58.000Z,100792
2018-02-19T06:17:13.000Z,100792
2018-02-19T06:18:58.000Z,100796
2018-02-19T06:20:13.000Z,100796
2018-02-19T06:22:13.000Z,100791
2018-02-19T06:23:13.000Z,100792
2018-02-19T06:25:13.000Z,100790
2018-02-19T06:26:13.000Z,100793
2018-02-19T06:27:43.000Z,100795
2018-02-19T06:29:13.000Z,100794
2018-02-19T06:31:13.000Z,100793
2018-02-19T06:32:58.000Z,100802
2018-02-19T06:34:13.000Z,100809
2018-02-19T06:35:58.000Z,100809
2018-02-19T06:37:13.000Z,100813
2018-02-19T06:39:13.000Z,100814
2018-02-19T06:41:13.000Z,100818
2018-02-19T06:43:13.000Z,100819
2018-02-19T06:44:13.000Z,100822
2018-02-19T06:45:13.000Z,100826
2018-02-19T06:47:13.000Z,100827
2018-02-19T06:48:13.000Z,100831
2018-02-19T06:49:13.000Z,100834
2018-02-19T06:51:13.000Z,100832
2018-02-19T06:53:13.000Z,100834
2018-02-19T06:55:13.000Z,100831
2018-02-19T06:56:13.000Z,100827
2018-02-19T06:58:13.000Z,100826
2018-02-19T06:59:13.000Z,100821
2018-02-19T07:01:13.000Z,100823
2018-02-19T07:03:13.000Z,100827
2018-02-19T07:04:13.000Z,100819
2018-02-19T07:05:13.000Z,100819
2018-02-19T07:06:13.000Z,100817
2018-02-19T07:08:13.000Z,100813
2018-02-19T07:09:12.000Z,100810
2018-02-19T07:10:12.000Z,100814
2018-02-19T07:11:12.000Z,100814
2018-02-19T07:13:12.000Z,100813
2018-02-19T07:15:12.000Z,100806
2018-02-19T07:17:12.000Z,100812
2018-02-19T07:18:12.000Z,100818
2018-02-19T07:20:12.000Z,100818
2018-02-19T07:21:57.000Z,100823
2018-02-19T07:23:12.000Z,100813
2018-02-19T07:25:12.000Z,100814
2018-02-19T07:27:12.000Z,100810
2018-02-19T07:28:57.000Z,100819
2018-02-19T07:30:12.000Z,100811
2018-02-19T07:32:12.000Z,100810
2018-02-19T07:33:57.000Z,100805
2018-02-19T07:35:12.000Z,100796
2018-02-19T07:36:12.000Z,100791
2018-02-19T07:38:12.000Z,100777
2018-02-19T07:40:12.000Z,100777
2018-02-19T07:42:12.000Z,100780
2018-02-19T07:44:13.000Z,100791
2018-02-19T07:46:12.000Z,100786
2018-02-19T07:48:13.000Z,100788
2018-02-19T07:50:12.000Z,100773
2018-02-19T07:52:12.000Z,100771
2018-02-19T07:53:12.000Z,100775
2018-02-19T07:54:12.000Z,100777
2018-02-19T07:56:12.000Z,100771
2018-02-19T07:57:12.000Z,100774
2018-02-19T07:59:12.000Z,100773
2018-02-19T08:00:13.000Z,100776
2018-02-19T08:02:12.000Z,100766
2018-02-19T08:03:12.000Z,100769
2018-02-19T08:05:12.000Z,100761
2018-02-19T08:06:12.000Z,100761
2018-02-19T08:08:12.000Z,100756
2018-02-19T08:10:12.000Z,100758
2018-02-19T08:11:12.000Z,100763
2018-02-19T08:12:58.000Z,100766
2018-02-19T08:14:13.000Z,100768
2018-02-19T08:15:13.000Z,100763
2018-02-19T08:16:13.000Z,100767
2018-02-19T08:18:13.000Z,100761
2018-02-19T08:20:13.000Z,100760
2018-02-19T08:22:13.000Z,100765
2018-02-19T08:24:13.000Z,100757
2018-02-19T08:26:13.000Z,100766
2018-02-19T08:27:13.000Z,100765
2018-02-19T08:29:13.000Z,100764
2018-02-19T08:31:13.000Z,100760
2018-02-19T08:33:13.000Z,100768
2018-02-19T08:34:13.000Z,100750
2018-02-19T08:36:13.000Z,100751
2018-02-19T08:37:13.000Z,100753
2018-02-19T08:39:13.000Z,100746
2018-02-19T08:40:13.000Z,100751
2018-02-19T08:41:58.000Z,100748
2018-02-19T08:43:13.000Z,100749
2018-02-19T08:44:58.000Z,100756
2018-02-19T08:46:13.000Z,100745
2018-02-19T08:48:13.000Z,100744
2018-02-19T08:50:13.000Z,100745
2018-02-19T08:51:13.000Z,100739
2018-02-19T08:52:13.000Z,100742
2018-02-19T08:54:13.000Z,100741
2018-02-19T08:56:13.000Z,100737
2018-02-19T08:57:13.000Z,100729
2018-02-19T08:58:13.000Z,100735
2018-02-19T09:00:13.000Z,100729
2018-02-19T09:02:13.000Z,100729
2018-02-19T09:03:13.000Z,100729
2018-02-19T09:04:13.000Z,100724
2018-02-19T09:06:13.000Z,100723
2018-02-19T09:08:13.000Z,100717
2018-02-19T09:10:13.000Z,100721
2018-02-19T09:12:13.000Z,100725
2018-02-19T09:13:13.000Z,100723
2018-02-19T09:15:13.000Z,100726
2018-02-19T09:16:13.000Z,100733
2018-02-19T09:18:13.000Z,100727
2018-02-19T09:19:13.000Z,100724
2018-02-19T09:21:13.000Z,100722
2018-02-19T09:23:13.000Z,100721
2018-02-19T09:25:13.000Z,100717
2018-02-19T09:26:13.000Z,100717
2018-02-19T09:28:13.000Z,100722
2018-02-19T09:29:13.000Z,100722
2018-02-19T09:30:13.000Z,100731
2018-02-19T09:31:58.000Z,100728
2018-02-19T09:33:13.000Z,100710
2018-02-19T09:35:13.000Z,100718
2018-02-19T09:37:13.000Z,100711
2018-02-19T09:39:13.000Z,100716
2018-02-19T09:41:13.000Z,100709
2018-02-19T09:43:13.000Z,100717
2018-02-19T09:44:43.000Z,100713
2018-02-19T09:46:13.000Z,100713
2018-02-19T09:47:13.000Z,100712
2018-02-19T09:48:58.000Z,100721
2018-02-19T09:50:13.000Z,100724
2018-02-19T09:52:13.000Z,100715
2018-02-19T09:53:58.000Z,100718
2018-02-19T09:55:13.000Z,100715
2018-02-19T09:57:13.000Z,100721
2018-02-19T09:59:13.000Z,100727
2018-02-19T10:00:13.000Z,100724
2018-02-19T10:02:13.000Z,100721
2018-02-19T10:03:13.000Z,100721
2018-02-19T10:05:13.000Z,100723
2018-02-19T10:06:13.000Z,100725
2018-02-19T10:08:13.000Z,100723
2018-02-19T10:09:13.000Z,100723
2018-02-19T10:10:58.000Z,100713
2018-02-19T10:12:13.000Z,100717
2018-02-19T10:13:13.000Z,100710
2018-02-19T10:15:13.000Z,100715
2018-02-19T10:16:13.000Z,100704
2018-02-19T10:18:13.000Z,100704
2018-02-19T10:19:13.000Z,100700
2018-02-19T10:21:13.000Z,100697
2018-02-19T10:23:13.000Z,100706
2018-02-19T10:25:13.000Z,100696
2018-02-19T10:26:57.000Z,100692
2018-02-19T10:28:13.000Z,100693
2018-02-19T10:30:13.000Z,100689
2018-02-19T10:31:57.000Z,100688
2018-02-19T10:33:13.000Z,100687
2018-02-19T10:34:57.000Z,100694
2018-02-19T10:36:13.000Z,100693
2018-02-19T10:37:13.000Z,100696
2018-02-19T10:38:57.000Z,100694
2018-02-19T10:40:13.000Z,100686
2018-02-19T10:42:13.000Z,100681
2018-02-19T10:43:13.000Z,100685
2018-02-19T10:44:13.000Z,100685
2018-02-19T10:46:13.000Z,100684
2018-02-19T10:47:57.000Z,100687
2018-02-19T10:49:13.000Z,100683
2018-02-19T10:50:57.000Z,100683
2018-02-19T10:52:13.000Z,100679
2018-02-19T10:54:13.000Z,100686
2018-02-19T10:56:13.000Z,100681
2018-02-19T10:57:13.000Z,100680
2018-02-19T10:59:13.000Z,100686
2018-02-19T11:00:13.000Z,100683
2018-02-19T11:02:13.000Z,100678
2018-02-19T11:03:13.000Z,100679
2018-02-19T11:04:13.000Z,100683
2018-02-19T11:06:13.000Z,100676
2018-02-19T11:08:13.000Z,100680
2018-02-19T11:09:13.000Z,100673
2018-02-19T11:11:13.000Z,100683
2018-02-19T11:13:13.000Z,100684
2018-02-19T11:15:13.000Z,100679
2018-02-19T11:17:13.000Z,100673
2018-02-19T11:18:13.000Z,100672
2018-02-19T11:20:13.000Z,100673
2018-02-19T11:21:13.000Z,100664
2018-02-19T11:23:13.000Z,100663
2018-02-19T11:25:13.000Z,100666
2018-02-19T11:26:58.000Z,100663
2018-02-19T11:28:13.000Z,100662
2018-02-19T11:30:13.000Z,100663
2018-02-19T11:32:13.000Z,100654
2018-02-19T11:34:13.000Z,100646
2018-02-19T11:35:58.000Z,100652
2018-02-19T11:37:13.000Z,100650
2018-02-19T11:39:13.000Z,100660
2018-02-19T11:41:13.000Z,100643
2018-02-19T11:43:13.000Z,100649
2018-02-19T11:44:58.000Z,100653
2018-02-19T11:45:58.000Z,100652
2018-02-19T11:47:13.000Z,100649
2018-02-19T11:48:13.000Z,100649
2018-02-19T11:49:13.000Z,100645
2018-02-19T11:50:13.000Z,100644
2018-02-19T11:52:13.000Z,100641
2018-02-19T11:54:13.000Z,100641
2018-02-19T11:55:58.000Z,100635
2018-02-19T11:57:13.000Z,100636
2018-02-19T11:59:13.000Z,100633
2018-02-19T12:00:13.000Z,100636
2018-02-19T12:02:13.000Z,100639
2018-02-19T12:04:13.000Z,100635
2018-02-19T12:05:58.000Z,100636
2018-02-19T12:07:13.000Z,100634
2018-02-19T12:08:58.000Z,100635
2018-02-19T12:10:13.000Z,100635
2018-02-19T12:11:13.000Z,100631
2018-02-19T12:12:58.000Z,100629
2018-02-19T12:14:13.000Z,100621
2018-02-19T12:15:58.000Z,100625
2018-02-19T12:17:13.000Z,100631
2018-02-19T12:18:13.000Z,100617
2018-02-19T12:19:13.000Z,100621
2018-02-19T12:21:13.000Z,100619
2018-02-19T12:23:13.000Z,100618
2018-02-19T12:25:13.000Z,100611
2018-02-19T12:27:13.000Z,100614
2018-02-19T12:28:58.000Z,100611
2018-02-19T12:30:13.000Z,100621
2018-02-19T12:32:13.000Z,100612
2018-02-19T12:34:13.000Z,100611
2018-02-19T12:35:13.000Z,100610
2018-02-19T12:37:13.000Z,100601
2018-02-19T12:39:13.000Z,100598
2018-02-19T12:40:13.000Z,100594
2018-02-19T12:42:13.000Z,100596
2018-02-19T12:44:13.000Z,100591
2018-02-19T12:45:13.000Z,100593
2018-02-19T12:46:13.000Z,100593
2018-02-19T12:48:13.000Z,100595
2018-02-19T12:49:13.000Z,100591
2018-02-19T12:51:13.000Z,100586
2018-02-19T12:52:13.000Z,100587
2018-02-19T12:54:13.000Z,100583
2018-02-19T12:56:13.000Z,100581
2018-02-19T12:58:13.000Z,100580
2018-02-19T13:00:13.000Z,100574
2018-02-19T13:01:13.000Z,100571
2018-02-19T13:03:13.000Z,100569
2018-02-19T13:04:13.000Z,100574
2018-02-19T13:06:13.000Z,100573
2018-02-19T13:08:13.000Z,100571
2018-02-19T13:10:13.000Z,100569
2018-02-19T13:12:13.000Z,100566
2018-02-19T13:14:13.000Z,100566
2018-02-19T13:15:58.000Z,100563
2018-02-19T13:17:13.000Z,100562
2018-02-19T13:18:13.000Z,100562
2018-02-19T13:20:13.000Z,100565
2018-02-19T13:22:13.000Z,100564
2018-02-19T13:23:13.000Z,100566
2018-02-19T13:24:13.000Z,100562
2018-02-19T13:25:13.000Z,100565
2018-02-19T13:27:13.000Z,100559
2018-02-19T13:29:13.000Z,100554
2018-02-19T13:31:13.000Z,100557
2018-02-19T13:33:13.000Z,100553
2018-02-19T13:34:13.000Z,100552
2018-02-19T13:35:13.000Z,100550
2018-02-19T13:37:13.000Z,100547
2018-02-19T13:39:13.000Z,100549
2018-02-19T13:40:13.000Z,100551
2018-02-19T13:42:13.000Z,100548
2018-02-19T13:44:13.000Z,100553
2018-02-19T13:46:13.000Z,100554
2018-02-19T13:48:13.000Z,100547
2018-02-19T13:50:13.000Z,100544
2018-02-19T13:52:13.000Z,100544
2018-02-19T13:53:13.000Z,100545
2018-02-19T13:55:13.000Z,100539
2018-02-19T13:57:13.000Z,100539
2018-02-19T13:59:13.000Z,100540
2018-02-19T14:00:58.000Z,100535
2018-02-19T14:02:13.000Z,100535
2018-02-19T14:04:13.000Z,100533
2018-02-19T14:05:58.000Z,100538
2018-02-19T14:07:13.000Z,100528
2018-02-19T14:09:13.000Z,100522
2018-02-19T14:11:13.000Z,100526
2018-02-19T14:13:13.000Z,100531
2018-02-19T14:15:13.000Z,100516
2018-02-19T14:16:13.000Z,100514
2018-02-19T14:17:13.000Z,100507
2018-02-19T14:19:13.000Z,100514
2018-02-19T14:21:13.000Z,100509
2018-02-19T14:23:13.000Z,100510
2018-02-19T14:24:58.000Z,100513
2018-02-19T14:26:13.000Z,100514
2018-02-19T14:28:13.000Z,100520
2018-02-19T14:30:13.000Z,100515
2018-02-19T14:32:13.000Z,100517
2018-02-19T14:33:13.000Z,100517
2018-02-19T14:35:13.000Z,100522
2018-02-19T14:36:13.000Z,100510
2018-02-19T14:37:57.000Z,100512
2018-02-19T14:39:13.000Z,100514
2018-02-19T14:41:13.000Z,100514
2018-02-19T14:43:13.000Z,100516
2018-02-19T14:45:13.000Z,100511
2018-02-19T14:47:13.000Z,100506
2018-02-19T14:49:13.000Z,100505
2018-02-19T14:51:13.000Z,100513
2018-02-19T14:52:13.000Z,100503
2018-02-19T14:54:13.000Z,100506
2018-02-19T14:56:13.000Z,100498
2018-02-19T14:57:13.000Z,100494
2018-02-19T14:59:13.000Z,100494
2018-02-19T15:01:13.000Z,100500
2018-02-19T15:03:13.000Z,100499
2018-02-19T15:04:13.000Z,100497
2018-02-19T15:05:42.000Z,100494
2018-02-19T15:07:13.000Z,100491
2018-02-19T15:09:13.000Z,100491
2018-02-19T15:10:13.000Z,100490
2018-02-19T15:11:13.000Z,100490
2018-02-19T15:13:13.000Z,100490
2018-02-19T15:15:13.000Z,100493
2018-02-19T15:16:57.000Z,100494
2018-02-19T15:18:13.000Z,100497
2018-02-19T15:19:13.000Z,100498
2018-02-19T15:21:13.000Z,100497
2018-02-19T15:23:13.000Z,100502
2018-02-19T15:25:13.000Z,100498
2018-02-19T15:26:13.000Z,100497
2018-02-19T15:28:13.000Z,100493
2018-02-19T15:30:13.000Z,100494
2018-02-19T15:32:13.000Z,100497
2018-02-19T15:34:13.000Z,100489
2018-02-19T15:36:13.000Z,100494
2018-02-19T15:38:13.000Z,100490
2018-02-19T15:40:13.000Z,100485
2018-02-19T15:42:13.000Z,100487
2018-02-19T15:44:13.000Z,100485
2018-02-19T15:45:13.000Z,100490
2018-02-19T15:46:13.000Z,100493
2018-02-19T15:48:13.000Z,100489
2018-02-19T15:50:13.000Z,100484
2018-02-19T15:51:13.000Z,100482
2018-02-19T15:53:13.000Z,100487
2018-02-19T15:55:13.000Z,100486
2018-02-19T15:57:13.000Z,100479
2018-02-19T15:58:13.000Z,100483
2018-02-19T16:00:13.000Z,100477
2018-02-19T16:02:13.000Z,100480
2018-02-19T16:03:58.000Z,100481
2018-02-19T16:05:13.000Z,100485
2018-02-19T16:07:13.000Z,100484
2018-02-19T16:09:13.000Z,100484
2018-02-19T16:10:13.000Z,100480
2018-02-19T16:12:13.000Z,100478
2018-02-19T16:13:58.000Z,100482
2018-02-19T16:15:13.000Z,100477
2018-02-19T16:17:13.000Z,100480
2018-02-19T16:19:13.000Z,100482
2018-02-19T16:21:13.000Z,100487
2018-02-19T16:23:13.000Z,100487
2018-02-19T16:24:13.000Z,100479
2018-02-19T16:26:13.000Z,100483
2018-02-19T16:27:13.000Z,100480
2018-02-19T16:28:13.000Z,100479
2018-02-19T16:30:13.000Z,100488
2018-02-19T16:32:13.000Z,100480
2018-02-19T16:33:13.000Z,100487
2018-02-19T16:34:13.000Z,100478
2018-02-19T16:35:43.000Z,100480
2018-02-19T16:37:13.000Z,100475
2018-02-19T16:38:13.000Z,100472
2018-02-19T16:39:13.000Z,100478
2018-02-19T16:41:13.000Z,100471
2018-02-19T16:43:12.000Z,100477
2018-02-19T16:45:12.000Z,100472
2018-02-19T16:47:12.000Z,100469
2018-02-19T16:49:12.000Z,100470
2018-02-19T16:51:12.000Z,100463
2018-02-19T16:52:57.000Z,100461
2018-02-19T16:54:12.000Z,100466
2018-02-19T16:55:12.000Z,100472
2018-02-19T16:56:42.000Z,100471
2018-02-19T16:58:12.000Z,100472
2018-02-19T17:00:12.000Z,100472
2018-02-19T17:02:12.000Z,100474
2018-02-19T17:04:13.000Z,100472
2018-02-19T17:06:12.000Z,100472
2018-02-19T17:08:12.000Z,100473
2018-02-19T17:10:12.000Z,100474
2018-02-19T17:12:12.000Z,100473
2018-02-19T17:14:12.000Z,100475
2018-02-19T17:16:12.000Z,100478
2018-02-19T17:17:57.000Z,100479
2018-02-19T17:19:12.000Z,100478
2018-02-19T17:21:12.000Z,100479
2018-02-19T17:23:12.000Z,100477
2018-02-19T17:24:12.000Z,100478
2018-02-19T17:25:12.000Z,100480
2018-02-19T17:27:12.000Z,100480
2018-02-19T17:28:12.000Z,100478
2018-02-19T17:30:12.000Z,100481
2018-02-19T17:32:12.000Z,100482
2018-02-19T17:33:57.000Z,100483
2018-02-19T17:35:12.000Z,100486
2018-02-19T17:36:12.000Z,100485
2018-02-19T17:37:57.000Z,100482
2018-02-19T17:39:12.000Z,100488
2018-02-19T17:41:12.000Z,100491
2018-02-19T17:43:12.000Z,100489
2018-02-19T17:45:12.000Z,100484
2018-02-19T17:46:13.000Z,100486
2018-02-19T17:48:13.000Z,100484
2018-02-19T17:49:13.000Z,100484
2018-02-19T17:51:13.000Z,100482
2018-02-19T17:53:13.000Z,100481
2018-02-19T17:54:13.000Z,100484
2018-02-19T17:55:13.000Z,100481
2018-02-19T17:57:13.000Z,100481
2018-02-19T17:58:13.000Z,100479
2018-02-19T17:59:13.000Z,100485
2018-02-19T18:01:13.000Z,100487
2018-02-19T18:02:13.000Z,100480
2018-02-19T18:04:13.000Z,100484
2018-02-19T18:06:13.000Z,100487
2018-02-19T18:07:13.000Z,100482
2018-02-19T18:08:13.000Z,100480
2018-02-19T18:10:13.000Z,100479
2018-02-19T18:12:13.000Z,100481
2018-02-19T18:13:57.000Z,100484
2018-02-19T18:15:13.000Z,100485
2018-02-19T18:16:13.000Z,100489
2018-02-19T18:18:13.000Z,100484
2018-02-19T18:20:13.000Z,100478
2018-02-19T18:22:13.000Z,100480
2018-02-19T18:23:57.000Z,100478
2018-02-19T18:25:13.000Z,100479
2018-02-19T18:26:13.000Z,100482
2018-02-19T18:27:57.000Z,100478
2018-02-19T18:29:13.000Z,100480
2018-02-19T18:31:13.000Z,100479
2018-02-19T18:32:13.000Z,100474
2018-02-19T18:33:13.000Z,100478
2018-02-19T18:35:13.000Z,100477
2018-02-19T18:37:13.000Z,100481
2018-02-19T18:38:13.000Z,100478
2018-02-19T18:40:13.000Z,100475
2018-02-19T18:42:13.000Z,100479
2018-02-19T18:43:57.000Z,100487
2018-02-19T18:45:13.000Z,100486
2018-02-19T18:46:13.000Z,100485
2018-02-19T18:47:13.000Z,100490
2018-02-19T18:49:13.000Z,100486
2018-02-19T18:50:13.000Z,100481
2018-02-19T18:51:13.000Z,100475
2018-02-19T18:52:58.000Z,100484
2018-02-19T18:54:13.000Z,100485
2018-02-19T18:55:13.000Z,100486
2018-02-19T18:57:13.000Z,100483
2018-02-19T18:58:58.000Z,100487
2018-02-19T18:59:58.000Z,100489
2018-02-19T19:01:13.000Z,100491
2018-02-19T19:02:13.000Z,100492
2018-02-19T19:04:13.000Z,100490
2018-02-19T19:06:13.000Z,100484
2018-02-19T19:08:13.000Z,100487
2018-02-19T19:09:13.000Z,100491
2018-02-19T19:11:13.000Z,100483
2018-02-19T19:12:58.000Z,100487
2018-02-19T19:14:13.000Z,100486
2018-02-19T19:15:13.000Z,100483
2018-02-19T19:17:13.000Z,100488
2018-02-19T19:19:13.000Z,100490
2018-02-19T19:21:13.000Z,100485
2018-02-19T19:23:13.000Z,100485
2018-02-19T19:24:58.000Z,100486
2018-02-19T19:26:13.000Z,100483
2018-02-19T19:28:13.000Z,100483
2018-02-19T19:30:13.000Z,100487
2018-02-19T19:32:13.000Z,100488
2018-02-19T19:34:13.000Z,100493
2018-02-19T19:35:13.000Z,100495
2018-02-19T19:37:13.000Z,100493
2018-02-19T19:38:13.000Z,100496
2018-02-19T19:40:13.000Z,100494
2018-02-19T19:42:13.000Z,100491
2018-02-19T19:43:13.000Z,100496
2018-02-19T19:45:13.000Z,100495
2018-02-19T19:47:13.000Z,100493
2018-02-19T19:48:58.000Z,100499
2018-02-19T19:50:13.000Z,100492
2018-02-19T19:52:13.000Z,100491
2018-02-19T19:53:43.000Z,100488
2018-02-19T19:55:13.000Z,100490
2018-02-19T19:56:13.000Z,100488
2018-02-19T19:57:58.000Z,100489
2018-02-19T19:59:13.000Z,100485
2018-02-19T20:01:13.000Z,100487